sensor_id;sensor_type;location;lat;lon;timestamp;pressure;altitude;pressure_sealevel;temperature;humidity
52227;BME280;38190;59.928;10.446;2022-08-06T00:02:02;100253.63;;;10.96;63.22
52227;BME280;38190;59.928;10.446;2022-08-06T00:05:03;100250.19;;;10.86;63.53
52227;BME280;38190;59.928;10.446;2022-08-06T00:08:04;100248.41;;;10.93;63.26
52227;BME280;38190;59.928;10.446;2022-08-06T00:11:04;100241.28;;;11.05;62.70
52227;BME280;38190;59.928;10.446;2022-08-06T00:14:06;100246.44;;;11.27;61.17
52227;BME280;38190;59.928;10.446;2022-08-06T00:17:06;100245.56;;;11.20;61.23
52227;BME280;38190;59.928;10.446;2022-08-06T00:20:07;100240.47;;;10.99;62.04
52227;BME280;38190;59.928;10.446;2022-08-06T00:23:08;100244.94;;;10.86;63.14
52227;BME280;38190;59.928;10.446;2022-08-06T00:26:09;100238.88;;;10.68;63.79
52227;BME280;38190;59.928;10.446;2022-08-06T00:29:09;100241.47;;;10.81;63.21
52227;BME280;38190;59.928;10.446;2022-08-06T00:32:10;100249.25;;;10.96;61.73
52227;BME280;38190;59.928;10.446;2022-08-06T00:35:10;100246.47;;;11.21;61.03
52227;BME280;38190;59.928;10.446;2022-08-06T00:38:11;100244.81;;;11.04;62.11
52227;BME280;38190;59.928;10.446;2022-08-06T00:41:11;100240.38;;;11.16;60.77
52227;BME280;38190;59.928;10.446;2022-08-06T00:44:14;100251.84;;;11.01;61.54
52227;BME280;38190;59.928;10.446;2022-08-06T00:47:15;100246.59;;;11.04;61.14
52227;BME280;38190;59.928;10.446;2022-08-06T00:50:15;100251.88;;;10.93;61.52
52227;BME280;38190;59.928;10.446;2022-08-06T00:53:16;100237.91;;;10.88;61.13
52227;BME280;38190;59.928;10.446;2022-08-06T00:56:16;100250.03;;;11.11;60.54
52227;BME280;38190;59.928;10.446;2022-08-06T00:59:16;100248.28;;;11.11;59.95
52227;BME280;38190;59.928;10.446;2022-08-06T01:02:17;100243.06;;;11.03;60.10
52227;BME280;38190;59.928;10.446;2022-08-06T01:05:17;100251.84;;;11.02;60.23
52227;BME280;38190;59.928;10.446;2022-08-06T01:08:18;100251.78;;;11.08;59.14
52227;BME280;38190;59.928;10.446;2022-08-06T01:11:18;100249.22;;;10.99;59.44
52227;BME280;38190;59.928;10.446;2022-08-06T01:14:19;100247.47;;;10.97;59.65
52227;BME280;38190;59.928;10.446;2022-08-06T01:17:33;100252.66;;;11.12;58.45
52227;BME280;38190;59.928;10.446;2022-08-06T01:20:46;100253.53;;;11.10;59.57
52227;BME280;38190;59.928;10.446;2022-08-06T01:27:35;100260.50;;;11.14;57.61
52227;BME280;38190;59.928;10.446;2022-08-06T01:31:04;100253.66;;;10.88;59.41
52227;BME280;38190;59.928;10.446;2022-08-06T01:34:16;100258.09;;;10.78;59.64
52227;BME280;38190;59.928;10.446;2022-08-06T01:37:27;100255.44;;;10.87;58.90
52227;BME280;38190;59.928;10.446;2022-08-06T01:40:32;100259.84;;;10.82;59.04
52227;BME280;38190;59.928;10.446;2022-08-06T01:43:35;100263.22;;;11.00;57.65
52227;BME280;38190;59.928;10.446;2022-08-06T01:46:40;100265.06;;;10.84;58.57
52227;BME280;38190;59.928;10.446;2022-08-06T01:49:50;100268.56;;;10.84;58.79
52227;BME280;38190;59.928;10.446;2022-08-06T01:52:53;100269.44;;;10.82;58.69
52227;BME280;38190;59.928;10.446;2022-08-06T01:55:59;100280.94;;;10.51;60.26
52227;BME280;38190;59.928;10.446;2022-08-06T01:59:02;100276.53;;;10.61;59.08
52227;BME280;38190;59.928;10.446;2022-08-06T02:02:08;100278.22;;;10.78;58.72
52227;BME280;38190;59.928;10.446;2022-08-06T02:05:13;100279.09;;;10.75;58.35
52227;BME280;38190;59.928;10.446;2022-08-06T02:08:16;100287.03;;;10.67;59.13
52227;BME280;38190;59.928;10.446;2022-08-06T02:11:18;100265.13;;;10.70;57.97
52227;BME280;38190;59.928;10.446;2022-08-06T02:14:20;100279.13;;;10.69;58.20
52227;BME280;38190;59.928;10.446;2022-08-06T02:17:37;100281.81;;;10.60;58.30
52227;BME280;38190;59.928;10.446;2022-08-06T02:20:43;100280.09;;;10.46;58.98
52227;BME280;38190;59.928;10.446;2022-08-06T02:23:47;100271.38;;;10.43;58.70
52227;BME280;38190;59.928;10.446;2022-08-06T02:26:48;100288.81;;;10.51;58.33
52227;BME280;38190;59.928;10.446;2022-08-06T02:29:50;100287.06;;;10.60;57.56
52227;BME280;38190;59.928;10.446;2022-08-06T02:32:54;100279.25;;;10.43;58.36
52227;BME280;38190;59.928;10.446;2022-08-06T02:36:02;100291.47;;;10.47;58.58
52227;BME280;38190;59.928;10.446;2022-08-06T02:39:24;100287.13;;;10.21;59.49
52227;BME280;38190;59.928;10.446;2022-08-06T02:42:43;100302.88;;;10.13;59.88
52227;BME280;38190;59.928;10.446;2022-08-06T02:45:55;100305.50;;;10.20;59.46
52227;BME280;38190;59.928;10.446;2022-08-06T02:49:19;100300.25;;;10.21;58.71
52227;BME280;38190;59.928;10.446;2022-08-06T02:52:44;100305.47;;;10.23;58.84
52227;BME280;38190;59.928;10.446;2022-08-06T02:55:49;100309.00;;;10.02;59.57
52227;BME280;38190;59.928;10.446;2022-08-06T02:58:51;100319.47;;;10.12;59.03
52227;BME280;38190;59.928;10.446;2022-08-06T03:01:56;100321.22;;;10.33;57.84
52227;BME280;38190;59.928;10.446;2022-08-06T03:04:59;100319.47;;;10.23;57.76
52227;BME280;38190;59.928;10.446;2022-08-06T03:08:02;100321.19;;;10.30;57.42
52227;BME280;38190;59.928;10.446;2022-08-06T03:11:07;100323.81;;;10.24;57.85
52227;BME280;38190;59.928;10.446;2022-08-06T03:14:12;100329.09;;;10.21;57.94
52227;BME280;38190;59.928;10.446;2022-08-06T03:17:15;100336.09;;;10.14;58.13
52227;BME280;38190;59.928;10.446;2022-08-06T03:20:19;100336.09;;;10.10;57.54
52227;BME280;38190;59.928;10.446;2022-08-06T03:23:20;100350.09;;;10.00;59.20
52227;BME280;38190;59.928;10.446;2022-08-06T03:26:22;100343.97;;;10.14;57.52
52227;BME280;38190;59.928;10.446;2022-08-06T03:29:27;100345.69;;;10.17;56.86
52227;BME280;38190;59.928;10.446;2022-08-06T03:32:30;100350.09;;;10.15;57.64
52227;BME280;38190;59.928;10.446;2022-08-06T03:35:33;100361.44;;;10.34;56.23
52227;BME280;38190;59.928;10.446;2022-08-06T03:38:38;100351.81;;;10.50;55.30
52227;BME280;38190;59.928;10.446;2022-08-06T03:41:40;100350.91;;;10.31;56.76
52227;BME280;38190;59.928;10.446;2022-08-06T03:44:41;100353.56;;;10.26;56.87
52227;BME280;38190;59.928;10.446;2022-08-06T03:47:47;100357.94;;;10.29;56.79
52227;BME280;38190;59.928;10.446;2022-08-06T03:50:53;100364.94;;;10.42;55.43
52227;BME280;38190;59.928;10.446;2022-08-06T03:53:56;100368.47;;;10.38;55.76
52227;BME280;38190;59.928;10.446;2022-08-06T03:57:02;100356.16;;;10.31;55.93
52227;BME280;38190;59.928;10.446;2022-08-06T04:00:04;100368.41;;;10.23;56.31
52227;BME280;38190;59.928;10.446;2022-08-06T04:03:07;100378.09;;;10.34;56.14
52227;BME280;38190;59.928;10.446;2022-08-06T04:06:09;100372.81;;;10.31;57.67
52227;BME280;38190;59.928;10.446;2022-08-06T04:09:11;100379.81;;;10.23;56.56
52227;BME280;38190;59.928;10.446;2022-08-06T04:12:13;100391.16;;;10.28;56.43
52227;BME280;38190;59.928;10.446;2022-08-06T04:15:14;100379.81;;;10.42;56.00
52227;BME280;38190;59.928;10.446;2022-08-06T04:18:17;100385.97;;;10.36;56.38
52227;BME280;38190;59.928;10.446;2022-08-06T04:21:21;100385.06;;;10.45;56.04
52227;BME280;38190;59.928;10.446;2022-08-06T04:24:22;100378.91;;;10.46;56.59
52227;BME280;38190;59.928;10.446;2022-08-06T04:27:23;100387.69;;;10.51;56.11
52227;BME280;38190;59.928;10.446;2022-08-06T04:30:26;100388.56;;;10.41;56.71
52227;BME280;38190;59.928;10.446;2022-08-06T04:33:29;100389.41;;;10.63;56.35
52227;BME280;38190;59.928;10.446;2022-08-06T04:36:31;100394.66;;;10.61;56.60
52227;BME280;38190;59.928;10.446;2022-08-06T04:39:33;100400.78;;;10.66;56.33
52227;BME280;38190;59.928;10.446;2022-08-06T04:42:33;100392.91;;;10.69;56.51
52227;BME280;38190;59.928;10.446;2022-08-06T04:45:36;100393.75;;;10.67;56.49
52227;BME280;38190;59.928;10.446;2022-08-06T04:48:38;100396.38;;;10.73;56.43
52227;BME280;38190;59.928;10.446;2022-08-06T04:51:38;100398.94;;;10.99;55.96
52227;BME280;38190;59.928;10.446;2022-08-06T04:54:40;100402.50;;;10.81;56.86
52227;BME280;38190;59.928;10.446;2022-08-06T04:57:40;100397.25;;;10.84;56.65
52227;BME280;38190;59.928;10.446;2022-08-06T05:00:44;100408.53;;;11.08;56.37
52227;BME280;38190;59.928;10.446;2022-08-06T05:03:44;100405.84;;;11.22;57.80
52227;BME280;38190;59.928;10.446;2022-08-06T05:06:52;100400.47;;;11.48;54.67
52227;BME280;38190;59.928;10.446;2022-08-06T05:09:58;100411.81;;;11.59;54.92
52227;BME280;38190;59.928;10.446;2022-08-06T05:13:00;100406.50;;;11.67;55.68
52227;BME280;38190;59.928;10.446;2022-08-06T05:16:05;100417.78;;;11.81;55.30
52227;BME280;38190;59.928;10.446;2022-08-06T05:19:16;100425.56;;;12.06;53.66
52227;BME280;38190;59.928;10.446;2022-08-06T05:22:17;100424.56;;;12.19;55.62
52227;BME280;38190;59.928;10.446;2022-08-06T05:25:19;100425.34;;;12.32;54.30
52227;BME280;38190;59.928;10.446;2022-08-06T05:28:19;100425.31;;;12.39;51.92
52227;BME280;38190;59.928;10.446;2022-08-06T05:31:35;100424.44;;;12.38;53.82
52227;BME280;38190;59.928;10.446;2022-08-06T05:34:35;100439.50;;;12.17;54.25
52227;BME280;38190;59.928;10.446;2022-08-06T05:37:36;100436.88;;;12.17;53.85
52227;BME280;38190;59.928;10.446;2022-08-06T05:40:39;100434.25;;;12.17;52.89
52227;BME280;38190;59.928;10.446;2022-08-06T05:43:40;100440.47;;;12.06;55.19
52227;BME280;38190;59.928;10.446;2022-08-06T05:46:50;100429.91;;;12.13;55.61
52227;BME280;38190;59.928;10.446;2022-08-06T05:49:55;100439.53;;;12.13;55.91
52227;BME280;38190;59.928;10.446;2022-08-06T05:53:05;100443.06;;;12.13;55.17
52227;BME280;38190;59.928;10.446;2022-08-06T05:56:16;100443.91;;;12.15;55.33
52227;BME280;38190;59.928;10.446;2022-08-06T05:59:24;100457.91;;;12.19;56.83
52227;BME280;38190;59.928;10.446;2022-08-06T06:02:27;100455.16;;;12.36;55.14
52227;BME280;38190;59.928;10.446;2022-08-06T06:05:30;100452.50;;;12.39;54.55
52227;BME280;38190;59.928;10.446;2022-08-06T06:08:31;100466.59;;;12.35;54.10
52227;BME280;38190;59.928;10.446;2022-08-06T06:11:31;100470.94;;;12.36;53.25
52227;BME280;38190;59.928;10.446;2022-08-06T06:14:40;100461.19;;;12.47;53.94
52227;BME280;38190;59.928;10.446;2022-08-06T06:21:10;100462.00;;;12.55;55.04
52227;BME280;38190;59.928;10.446;2022-08-06T06:24:22;100463.56;;;12.80;54.20
52227;BME280;38190;59.928;10.446;2022-08-06T06:27:47;100465.22;;;12.87;54.21
52227;BME280;38190;59.928;10.446;2022-08-06T06:34:09;100470.56;;;12.81;52.96
52227;BME280;38190;59.928;10.446;2022-08-06T06:46:43;100485.22;;;13.08;52.75
52227;BME280;38190;59.928;10.446;2022-08-06T06:49:54;100488.72;;;13.10;55.96
52227;BME280;38190;59.928;10.446;2022-08-06T06:52:56;100484.97;;;13.36;52.34
52227;BME280;38190;59.928;10.446;2022-08-06T06:55:58;100475.91;;;13.55;50.93
52227;BME280;38190;59.928;10.446;2022-08-06T06:59:07;100483.47;;;13.83;51.87
52227;BME280;38190;59.928;10.446;2022-08-06T07:02:15;100492.25;;;13.83;50.34
52227;BME280;38190;59.928;10.446;2022-08-06T07:05:19;100478.88;;;13.97;49.64
52227;BME280;38190;59.928;10.446;2022-08-06T07:08:21;100500.66;;;14.13;49.29
52227;BME280;38190;59.928;10.446;2022-08-06T07:11:25;100490.03;;;14.15;49.12
52227;BME280;38190;59.928;10.446;2022-08-06T07:14:27;100498.28;;;14.52;48.73
52227;BME280;38190;59.928;10.446;2022-08-06T07:17:30;100509.59;;;14.62;49.03
52227;BME280;38190;59.928;10.446;2022-08-06T07:20:32;100513.38;;;14.99;48.46
52227;BME280;38190;59.928;10.446;2022-08-06T07:23:34;100522.91;;;15.07;46.48
52227;BME280;38190;59.928;10.446;2022-08-06T07:26:35;100518.81;;;15.38;46.14
52227;BME280;38190;59.928;10.446;2022-08-06T07:29:39;100528.91;;;16.06;48.65
52227;BME280;38190;59.928;10.446;2022-08-06T07:32:43;100533.50;;;15.98;45.80
52227;BME280;38190;59.928;10.446;2022-08-06T07:35:45;100523.38;;;15.73;46.37
52227;BME280;38190;59.928;10.446;2022-08-06T07:38:48;100526.22;;;15.19;47.89
52227;BME280;38190;59.928;10.446;2022-08-06T07:41:51;100531.50;;;14.69;49.13
52227;BME280;38190;59.928;10.446;2022-08-06T07:44:56;100529.25;;;14.43;49.56
52227;BME280;38190;59.928;10.446;2022-08-06T07:48:00;100532.13;;;14.85;48.05
52227;BME280;38190;59.928;10.446;2022-08-06T07:51:05;100531.00;;;15.46;46.62
52227;BME280;38190;59.928;10.446;2022-08-06T07:54:07;100529.25;;;16.30;46.68
52227;BME280;38190;59.928;10.446;2022-08-06T07:57:09;100536.97;;;16.39;48.03
52227;BME280;38190;59.928;10.446;2022-08-06T08:00:11;100540.53;;;16.38;45.93
52227;BME280;38190;59.928;10.446;2022-08-06T08:03:11;100553.34;;;15.75;49.61
52227;BME280;38190;59.928;10.446;2022-08-06T08:06:30;100551.31;;;15.90;50.79
52227;BME280;38190;59.928;10.446;2022-08-06T08:09:32;100564.81;;;16.18;47.66
52227;BME280;38190;59.928;10.446;2022-08-06T08:12:36;100566.47;;;16.23;47.80
52227;BME280;38190;59.928;10.446;2022-08-06T08:15:37;100560.19;;;16.67;49.48
52227;BME280;38190;59.928;10.446;2022-08-06T08:18:39;100568.97;;;16.69;47.53
52227;BME280;38190;59.928;10.446;2022-08-06T08:21:39;100566.56;;;16.95;45.59
52227;BME280;38190;59.928;10.446;2022-08-06T08:24:41;100563.94;;;17.28;47.65
52227;BME280;38190;59.928;10.446;2022-08-06T08:27:41;100564.34;;;17.13;45.63
52227;BME280;38190;59.928;10.446;2022-08-06T08:30:43;100568.38;;;16.93;45.16
52227;BME280;38190;59.928;10.446;2022-08-06T08:33:44;100563.78;;;17.34;47.49
52227;BME280;38190;59.928;10.446;2022-08-06T08:36:45;100579.28;;;17.50;45.29
52227;BME280;38190;59.928;10.446;2022-08-06T08:39:45;100581.75;;;16.89;45.65
52227;BME280;38190;59.928;10.446;2022-08-06T08:42:48;100581.22;;;17.10;45.54
52227;BME280;38190;59.928;10.446;2022-08-06T08:45:53;100590.34;;;17.66;43.78
52227;BME280;38190;59.928;10.446;2022-08-06T08:48:55;100582.00;;;17.80;43.75
52227;BME280;38190;59.928;10.446;2022-08-06T08:52:00;100583.03;;;19.18;45.19
52227;BME280;38190;59.928;10.446;2022-08-06T08:55:03;100577.09;;;18.55;41.68
52227;BME280;38190;59.928;10.446;2022-08-06T08:58:05;100582.03;;;18.39;44.92
52227;BME280;38190;59.928;10.446;2022-08-06T09:01:06;100590.94;;;17.76;42.96
52227;BME280;38190;59.928;10.446;2022-08-06T09:04:08;100595.25;;;18.13;45.81
52227;BME280;38190;59.928;10.446;2022-08-06T09:07:09;100590.03;;;17.77;45.66
52227;BME280;38190;59.928;10.446;2022-08-06T09:10:10;100606.50;;;16.50;47.10
52227;BME280;38190;59.928;10.446;2022-08-06T09:13:11;100606.59;;;17.21;48.33
52227;BME280;38190;59.928;10.446;2022-08-06T09:16:11;100604.66;;;18.23;44.35
52227;BME280;38190;59.928;10.446;2022-08-06T09:19:12;100603.97;;;18.46;44.71
52227;BME280;38190;59.928;10.446;2022-08-06T09:22:13;100606.38;;;18.25;42.67
52227;BME280;38190;59.928;10.446;2022-08-06T09:28:42;100611.53;;;17.67;45.46
52227;BME280;38190;59.928;10.446;2022-08-06T09:31:43;100608.72;;;17.74;46.16
52227;BME280;38190;59.928;10.446;2022-08-06T09:34:43;100610.94;;;18.20;45.84
52227;BME280;38190;59.928;10.446;2022-08-06T09:37:44;100616.34;;;18.75;53.52
52227;BME280;38190;59.928;10.446;2022-08-06T09:41:05;100623.16;;;18.56;45.81
52227;BME280;38190;59.928;10.446;2022-08-06T09:44:09;100625.19;;;19.04;43.59
52227;BME280;38190;59.928;10.446;2022-08-06T09:47:18;100619.28;;;19.21;42.07
52227;BME280;38190;59.928;10.446;2022-08-06T09:50:38;100623.28;;;20.10;42.12
52227;BME280;38190;59.928;10.446;2022-08-06T09:53:51;100611.28;;;20.90;40.18
52227;BME280;38190;59.928;10.446;2022-08-06T09:56:56;100615.47;;;21.38;41.64
52227;BME280;38190;59.928;10.446;2022-08-06T09:59:59;100614.63;;;21.58;38.72
52227;BME280;38190;59.928;10.446;2022-08-06T10:03:05;100624.44;;;20.03;43.44
52227;BME280;38190;59.928;10.446;2022-08-06T10:06:09;100620.19;;;22.14;41.54
52227;BME280;38190;59.928;10.446;2022-08-06T10:09:11;100623.09;;;20.84;38.64
52227;BME280;38190;59.928;10.446;2022-08-06T10:12:21;100623.09;;;21.27;41.32
52227;BME280;38190;59.928;10.446;2022-08-06T10:15:28;100617.00;;;21.02;38.46
52227;BME280;38190;59.928;10.446;2022-08-06T10:18:32;100616.34;;;19.55;41.99
52227;BME280;38190;59.928;10.446;2022-08-06T10:21:33;100617.53;;;19.22;42.21
52227;BME280;38190;59.928;10.446;2022-08-06T10:24:44;100625.38;;;19.51;41.33
52227;BME280;38190;59.928;10.446;2022-08-06T10:27:46;100623.72;;;20.45;41.35
52227;BME280;38190;59.928;10.446;2022-08-06T10:30:47;100628.75;;;20.05;39.48
52227;BME280;38190;59.928;10.446;2022-08-06T10:34:02;100621.84;;;22.73;40.40
52227;BME280;38190;59.928;10.446;2022-08-06T10:37:06;100622.00;;;22.13;39.97
52227;BME280;38190;59.928;10.446;2022-08-06T10:40:09;100627.91;;;20.28;39.47
52227;BME280;38190;59.928;10.446;2022-08-06T10:43:11;100628.09;;;21.96;43.92
52227;BME280;38190;59.928;10.446;2022-08-06T10:46:13;100630.94;;;20.65;39.75
52227;BME280;38190;59.928;10.446;2022-08-06T10:49:16;100620.34;;;19.17;40.54
52227;BME280;38190;59.928;10.446;2022-08-06T10:52:17;100628.63;;;19.33;46.35
52227;BME280;38190;59.928;10.446;2022-08-06T10:55:19;100634.41;;;18.64;47.41
52227;BME280;38190;59.928;10.446;2022-08-06T10:58:19;100644.53;;;18.23;47.74
52227;BME280;38190;59.928;10.446;2022-08-06T11:01:32;100629.88;;;17.77;46.07
52227;BME280;38190;59.928;10.446;2022-08-06T11:04:46;100647.44;;;17.49;44.99
52227;BME280;38190;59.928;10.446;2022-08-06T11:11:23;100641.78;;;17.62;46.10
52227;BME280;38190;59.928;10.446;2022-08-06T11:14:24;100641.84;;;17.59;44.35
52227;BME280;38190;59.928;10.446;2022-08-06T11:17:44;100654.94;;;17.32;46.46
52227;BME280;38190;59.928;10.446;2022-08-06T11:20:48;100652.72;;;17.82;47.09
52227;BME280;38190;59.928;10.446;2022-08-06T11:23:59;100647.41;;;17.82;47.79
52227;BME280;38190;59.928;10.446;2022-08-06T11:27:00;100650.34;;;18.36;52.52
52227;BME280;38190;59.928;10.446;2022-08-06T11:30:11;100648.03;;;21.05;47.35
52227;BME280;38190;59.928;10.446;2022-08-06T11:33:13;100636.34;;;22.50;44.28
52227;BME280;38190;59.928;10.446;2022-08-06T11:36:27;100637.44;;;22.46;40.18
52227;BME280;38190;59.928;10.446;2022-08-06T11:39:27;100647.06;;;22.31;37.13
52227;BME280;38190;59.928;10.446;2022-08-06T11:42:42;100647.19;;;22.66;39.40
52227;BME280;38190;59.928;10.446;2022-08-06T11:49:24;100645.63;;;21.83;41.51
52227;BME280;38190;59.928;10.446;2022-08-06T11:56:03;100663.69;;;20.69;43.03
52227;BME280;38190;59.928;10.446;2022-08-06T11:59:12;100653.66;;;21.62;42.92
52227;BME280;38190;59.928;10.446;2022-08-06T12:02:45;100644.22;;;20.67;38.99
52227;BME280;38190;59.928;10.446;2022-08-06T12:05:39;100646.31;;;22.46;39.33
52227;BME280;38190;59.928;10.446;2022-08-06T12:08:39;100653.81;;;22.76;39.83
52227;BME280;38190;59.928;10.446;2022-08-06T12:11:40;100641.44;;;21.96;36.34
52227;BME280;38190;59.928;10.446;2022-08-06T12:14:41;100643.09;;;21.59;38.14
52227;BME280;38190;59.928;10.446;2022-08-06T12:20:54;100655.81;;;23.27;41.22
52227;BME280;38190;59.928;10.446;2022-08-06T12:23:55;100671.19;;;20.59;39.35
52227;BME280;38190;59.928;10.446;2022-08-06T12:26:55;100670.41;;;21.66;40.74
52227;BME280;38190;59.928;10.446;2022-08-06T12:29:57;100668.50;;;21.05;38.61
52227;BME280;38190;59.928;10.446;2022-08-06T12:33:00;100677.03;;;21.98;44.14
52227;BME280;38190;59.928;10.446;2022-08-06T12:36:01;100660.97;;;23.49;43.75
52227;BME280;38190;59.928;10.446;2022-08-06T12:39:05;100680.28;;;24.73;39.14
52227;BME280;38190;59.928;10.446;2022-08-06T12:42:21;100677.28;;;23.97;42.43
52227;BME280;38190;59.928;10.446;2022-08-06T12:45:22;100675.63;;;23.94;37.52
52227;BME280;38190;59.928;10.446;2022-08-06T12:48:23;100677.47;;;22.08;39.29
52227;BME280;38190;59.928;10.446;2022-08-06T12:51:24;100689.56;;;22.17;39.79
52227;BME280;38190;59.928;10.446;2022-08-06T12:54:28;100669.34;;;23.24;33.65
52227;BME280;38190;59.928;10.446;2022-08-06T12:57:29;100676.31;;;23.28;35.54
52227;BME280;38190;59.928;10.446;2022-08-06T13:00:31;100685.03;;;22.95;35.72
52227;BME280;38190;59.928;10.446;2022-08-06T13:03:35;100680.47;;;24.53;36.98
52227;BME280;38190;59.928;10.446;2022-08-06T13:06:36;100682.91;;;22.84;36.01
52227;BME280;38190;59.928;10.446;2022-08-06T13:09:37;100690.47;;;22.55;39.40
52227;BME280;38190;59.928;10.446;2022-08-06T13:12:38;100690.13;;;21.84;41.74
52227;BME280;38190;59.928;10.446;2022-08-06T13:15:38;100700.75;;;21.43;38.04
52227;BME280;38190;59.928;10.446;2022-08-06T13:18:40;100690.47;;;22.16;41.56
52227;BME280;38190;59.928;10.446;2022-08-06T13:21:43;100693.97;;;21.56;36.80
52227;BME280;38190;59.928;10.446;2022-08-06T13:24:44;100697.94;;;21.46;38.27
52227;BME280;38190;59.928;10.446;2022-08-06T13:27:45;100702.59;;;20.27;40.25
52227;BME280;38190;59.928;10.446;2022-08-06T13:30:46;100699.38;;;20.42;40.93
52227;BME280;38190;59.928;10.446;2022-08-06T13:34:04;100698.75;;;21.05;37.37
52227;BME280;38190;59.928;10.446;2022-08-06T13:37:05;100703.25;;;21.47;38.20
52227;BME280;38190;59.928;10.446;2022-08-06T13:40:06;100702.19;;;20.14;40.10
52227;BME280;38190;59.928;10.446;2022-08-06T13:43:07;100698.53;;;20.40;41.90
52227;BME280;38190;59.928;10.446;2022-08-06T13:49:08;100697.38;;;19.73;40.98
52227;BME280;38190;59.928;10.446;2022-08-06T13:52:11;100700.75;;;20.29;40.24
52227;BME280;38190;59.928;10.446;2022-08-06T13:55:12;100700.94;;;20.24;45.94
52227;BME280;38190;59.928;10.446;2022-08-06T13:58:13;100696.97;;;20.11;40.35
52227;BME280;38190;59.928;10.446;2022-08-06T14:01:14;100685.00;;;21.14;39.76
52227;BME280;38190;59.928;10.446;2022-08-06T14:04:17;100695.63;;;21.16;38.99
52227;BME280;38190;59.928;10.446;2022-08-06T14:07:19;100688.22;;;21.23;39.26
52227;BME280;38190;59.928;10.446;2022-08-06T14:10:20;100681.38;;;21.80;40.04
52227;BME280;38190;59.928;10.446;2022-08-06T14:13:20;100695.31;;;21.01;38.09
52227;BME280;38190;59.928;10.446;2022-08-06T14:16:21;100693.63;;;20.53;40.08
52227;BME280;38190;59.928;10.446;2022-08-06T14:19:22;100688.38;;;20.03;41.40
52227;BME280;38190;59.928;10.446;2022-08-06T14:22:22;100686.13;;;20.87;40.21
52227;BME280;38190;59.928;10.446;2022-08-06T14:25:23;100692.13;;;20.22;39.16
52227;BME280;38190;59.928;10.446;2022-08-06T14:28:24;100693.38;;;20.12;42.65
52227;BME280;38190;59.928;10.446;2022-08-06T14:31:25;100695.53;;;20.73;40.68
52227;BME280;38190;59.928;10.446;2022-08-06T14:34:25;100685.13;;;20.89;38.17
52227;BME280;38190;59.928;10.446;2022-08-06T14:37:26;100690.25;;;20.48;43.88
52227;BME280;38190;59.928;10.446;2022-08-06T14:40:26;100686.84;;;19.96;39.61
52227;BME280;38190;59.928;10.446;2022-08-06T14:43:46;100695.44;;;18.98;42.84
52227;BME280;38190;59.928;10.446;2022-08-06T14:47:05;100691.25;;;18.90;47.34
52227;BME280;38190;59.928;10.446;2022-08-06T14:50:08;100691.31;;;19.95;40.17
52227;BME280;38190;59.928;10.446;2022-08-06T14:53:08;100685.56;;;19.82;42.43
52227;BME280;38190;59.928;10.446;2022-08-06T14:56:09;100687.91;;;19.40;41.26
52227;BME280;38190;59.928;10.446;2022-08-06T14:59:09;100690.84;;;19.04;41.45
52227;BME280;38190;59.928;10.446;2022-08-06T15:02:10;100697.44;;;18.92;42.72
52227;BME280;38190;59.928;10.446;2022-08-06T15:05:11;100696.13;;;19.05;41.52
52227;BME280;38190;59.928;10.446;2022-08-06T15:08:12;100699.25;;;18.90;42.18
52227;BME280;38190;59.928;10.446;2022-08-06T15:11:12;100705.09;;;18.71;46.77
52227;BME280;38190;59.928;10.446;2022-08-06T15:14:13;100702.91;;;18.56;43.80
52227;BME280;38190;59.928;10.446;2022-08-06T15:17:13;100694.19;;;18.80;42.73
52227;BME280;38190;59.928;10.446;2022-08-06T15:20:14;100704.19;;;19.02;41.08
52227;BME280;38190;59.928;10.446;2022-08-06T15:23:14;100713.16;;;18.98;44.77
52227;BME280;38190;59.928;10.446;2022-08-06T15:26:16;100699.13;;;19.21;42.47
52227;BME280;38190;59.928;10.446;2022-08-06T15:29:17;100706.91;;;19.27;43.36
52227;BME280;38190;59.928;10.446;2022-08-06T15:32:17;100713.56;;;19.14;44.96
52227;BME280;38190;59.928;10.446;2022-08-06T15:35:18;100712.66;;;19.42;42.48
52227;BME280;38190;59.928;10.446;2022-08-06T15:38:18;100715.69;;;19.84;47.64
52227;BME280;38190;59.928;10.446;2022-08-06T15:41:20;100706.09;;;19.79;43.08
52227;BME280;38190;59.928;10.446;2022-08-06T15:44:23;100707.53;;;19.09;45.85
52227;BME280;38190;59.928;10.446;2022-08-06T15:47:23;100700.94;;;18.92;45.89
52227;BME280;38190;59.928;10.446;2022-08-06T15:50:24;100709.13;;;18.55;49.37
52227;BME280;38190;59.928;10.446;2022-08-06T15:53:25;100706.03;;;18.40;48.03
52227;BME280;38190;59.928;10.446;2022-08-06T15:56:27;100704.19;;;18.42;45.09
52227;BME280;38190;59.928;10.446;2022-08-06T15:59:30;100708.97;;;17.98;49.63
52227;BME280;38190;59.928;10.446;2022-08-06T16:02:30;100711.59;;;18.00;48.05
52227;BME280;38190;59.928;10.446;2022-08-06T16:05:31;100707.88;;;18.05;47.77
52227;BME280;38190;59.928;10.446;2022-08-06T16:08:31;100716.44;;;18.17;50.57
52227;BME280;38190;59.928;10.446;2022-08-06T16:11:32;100717.53;;;18.41;48.12
52227;BME280;38190;59.928;10.446;2022-08-06T16:14:33;100710.19;;;18.49;43.79
52227;BME280;38190;59.928;10.446;2022-08-06T16:17:34;100713.53;;;18.26;45.06
52227;BME280;38190;59.928;10.446;2022-08-06T16:20:34;100713.69;;;18.20;45.58
52227;BME280;38190;59.928;10.446;2022-08-06T16:23:35;100714.56;;;18.20;45.96
52227;BME280;38190;59.928;10.446;2022-08-06T16:26:35;100719.28;;;18.11;47.23
52227;BME280;38190;59.928;10.446;2022-08-06T16:29:36;100718.66;;;18.32;45.79